Track Ильченко Даниил

Time Latitude Longitude Accuracy (66% radius in meters) Altitude (meters) Speed (km/hour) Bearing (degrees) Battery (%) GPS flag
06:55:36 57.210315 60.112882 0 0 0 0 1 delete
06:55:31 57.210282 60.113114 0 0 0 0 1 delete
06:55:26 57.210119 60.113235 0 0 0 0 1 delete
06:55:21 57.209957 60.113246 0 0 0 0 1 delete
06:55:16 57.209770 60.113120 0 0 0 0 1 delete
06:55:12 57.209600 60.113044 0 0 0 0 1 delete
06:55:10 57.209510 60.112999 0 0 0 0 1 delete
06:55:05 57.209297 60.112925 0 0 0 0 1 delete
06:55:00 57.209090 60.112862 0 0 0 0 1 delete
06:54:58 57.209014 60.112974 0 0 0 0 1 delete
06:54:54 57.208869 60.113170 0 0 0 0 1 delete
06:54:51 57.208716 60.113182 0 0 0 0 1 delete
06:54:50 57.208662 60.113182 0 0 0 0 1 delete
06:54:46 57.208427 60.113177 0 0 0 0 1 delete
06:54:43 57.208246 60.113197 0 0 0 0 1 delete
06:54:40 57.208065 60.113206 0 0 0 0 1 delete
06:54:38 57.207958 60.113231 0 0 0 0 1 delete
06:54:36 57.207850 60.113262 0 0 0 0 1 delete
06:54:31 57.207634 60.113183 0 0 0 0 1 delete
06:54:28 57.207532 60.113070 0 0 0 0 1 delete
06:54:25 57.207440 60.112953 0 0 0 0 1 delete
06:54:21 57.207310 60.112796 0 0 0 0 1 delete
06:54:17 57.207205 60.112604 0 0 0 0 1 delete
06:54:13 57.207059 60.112430 0 0 0 0 1 delete
06:54:12 57.207016 60.112386 0 0 0 0 1 delete
06:54:08 57.206861 60.112178 0 0 0 0 1 delete
06:54:06 57.206765 60.112147 0 0 0 0 1 delete
06:54:05 57.206722 60.112128 0 0 0 0 1 delete
06:54:01 57.206555 60.112001 0 0 0 0 1 delete
06:53:58 57.206415 60.111907 0 0 0 0 1 delete
06:53:54 57.206231 60.111926 0 0 0 0 1 delete
06:53:51 57.206136 60.111762 0 0 0 0 1 delete
06:53:47 57.205994 60.111504 0 0 0 0 1 delete
06:53:43 57.205825 60.111298 0 0 0 0 1 delete
06:53:38 57.205633 60.111144 0 0 0 0 1 delete
06:53:36 57.205608 60.111060 0 0 0 0 1 delete
06:53:31 57.205579 60.110679 0 0 0 0 1 delete
06:53:27 57.205498 60.110448 0 0 0 0 1 delete
06:53:21 57.205408 60.110134 0 0 0 0 1 delete
06:53:15 57.205361 60.109772 0 0 0 0 1 delete
06:53:10 57.205301 60.109434 0 0 0 0 1 delete
06:53:05 57.205210 60.109127 0 0 0 0 1 delete
06:53:00 57.205106 60.108778 0 0 0 0 1 delete
06:52:59 57.205102 60.108715 0 0 0 0 1 delete
06:52:54 57.205228 60.108484 0 0 0 0 1 delete
06:52:50 57.205323 60.108270 0 0 0 0 1 delete
06:52:47 57.205387 60.108099 0 0 0 0 1 delete
06:52:36 57.205369 60.107853 0 0 0 0 1 delete
06:52:31 57.205341 60.108181 0 0 0 0 1 delete
06:52:26 57.205207 60.108454 0 0 0 0 1 delete